sensor_id;sensor_type;location;lat;lon;timestamp;P1;durP1;ratioP1;P2;durP2;ratioP2
57087;SDS011;42965;52.846;6.614;2023-12-22T00:00:10;19.20;;;4.28;;
57087;SDS011;42965;52.846;6.614;2023-12-22T00:02:37;21.20;;;5.38;;
57087;SDS011;42965;52.846;6.614;2023-12-22T00:05:03;19.90;;;3.97;;
57087;SDS011;42965;52.846;6.614;2023-12-22T00:07:30;19.85;;;4.10;;
57087;SDS011;42965;52.846;6.614;2023-12-22T00:09:56;21.02;;;4.55;;
57087;SDS011;42965;52.846;6.614;2023-12-22T00:12:23;20.58;;;4.20;;
57087;SDS011;42965;52.846;6.614;2023-12-22T00:14:52;23.10;;;4.50;;
57087;SDS011;42965;52.846;6.614;2023-12-22T00:17:38;20.73;;;4.80;;
57087;SDS011;42965;52.846;6.614;2023-12-22T00:20:04;24.75;;;5.38;;
57087;SDS011;42965;52.846;6.614;2023-12-22T00:22:33;22.00;;;5.00;;
57087;SDS011;42965;52.846;6.614;2023-12-22T00:25:02;22.70;;;4.85;;
57087;SDS011;42965;52.846;6.614;2023-12-22T00:27:33;23.20;;;5.55;;
57087;SDS011;42965;52.846;6.614;2023-12-22T00:29:59;26.95;;;5.13;;
57087;SDS011;42965;52.846;6.614;2023-12-22T00:32:25;24.83;;;5.30;;
57087;SDS011;42965;52.846;6.614;2023-12-22T00:34:52;24.13;;;5.88;;
57087;SDS011;42965;52.846;6.614;2023-12-22T00:37:18;29.35;;;6.15;;
57087;SDS011;42965;52.846;6.614;2023-12-22T00:39:44;18.88;;;4.20;;
57087;SDS011;42965;52.846;6.614;2023-12-22T00:42:10;19.02;;;5.05;;
57087;SDS011;42965;52.846;6.614;2023-12-22T00:44:37;20.00;;;4.05;;
57087;SDS011;42965;52.846;6.614;2023-12-22T00:47:07;15.70;;;3.80;;
57087;SDS011;42965;52.846;6.614;2023-12-22T00:49:33;19.25;;;4.40;;
57087;SDS011;42965;52.846;6.614;2023-12-22T00:51:59;20.17;;;3.63;;
57087;SDS011;42965;52.846;6.614;2023-12-22T00:54:25;27.30;;;4.88;;
57087;SDS011;42965;52.846;6.614;2023-12-22T00:56:52;18.42;;;3.35;;
57087;SDS011;42965;52.846;6.614;2023-12-22T00:59:20;22.02;;;3.58;;
57087;SDS011;42965;52.846;6.614;2023-12-22T01:01:46;18.95;;;3.63;;
57087;SDS011;42965;52.846;6.614;2023-12-22T01:04:12;21.05;;;5.28;;
57087;SDS011;42965;52.846;6.614;2023-12-22T01:06:39;26.35;;;3.80;;
57087;SDS011;42965;52.846;6.614;2023-12-22T01:09:05;19.80;;;3.85;;
57087;SDS011;42965;52.846;6.614;2023-12-22T01:11:31;20.45;;;4.47;;
57087;SDS011;42965;52.846;6.614;2023-12-22T01:13:58;19.25;;;4.50;;
57087;SDS011;42965;52.846;6.614;2023-12-22T01:16:24;20.65;;;4.25;;
57087;SDS011;42965;52.846;6.614;2023-12-22T01:18:50;18.95;;;3.63;;
57087;SDS011;42965;52.846;6.614;2023-12-22T01:21:16;22.20;;;4.40;;
57087;SDS011;42965;52.846;6.614;2023-12-22T01:23:43;21.10;;;3.88;;
57087;SDS011;42965;52.846;6.614;2023-12-22T01:26:09;22.70;;;4.75;;
57087;SDS011;42965;52.846;6.614;2023-12-22T01:28:35;24.92;;;4.80;;
57087;SDS011;42965;52.846;6.614;2023-12-22T01:31:02;22.25;;;4.32;;
57087;SDS011;42965;52.846;6.614;2023-12-22T01:33:28;21.92;;;4.07;;
57087;SDS011;42965;52.846;6.614;2023-12-22T01:35:55;16.25;;;4.07;;
57087;SDS011;42965;52.846;6.614;2023-12-22T01:38:21;24.45;;;4.10;;
57087;SDS011;42965;52.846;6.614;2023-12-22T01:40:47;19.98;;;4.53;;
57087;SDS011;42965;52.846;6.614;2023-12-22T01:43:14;20.30;;;4.35;;
57087;SDS011;42965;52.846;6.614;2023-12-22T01:45:42;17.00;;;4.18;;
57087;SDS011;42965;52.846;6.614;2023-12-22T01:48:10;17.30;;;3.67;;
57087;SDS011;42965;52.846;6.614;2023-12-22T01:50:37;22.23;;;4.20;;
57087;SDS011;42965;52.846;6.614;2023-12-22T01:53:04;16.55;;;3.90;;
57087;SDS011;42965;52.846;6.614;2023-12-22T01:55:31;18.60;;;3.75;;
57087;SDS011;42965;52.846;6.614;2023-12-22T01:57:58;14.73;;;3.60;;
57087;SDS011;42965;52.846;6.614;2023-12-22T02:00:25;20.48;;;4.55;;
57087;SDS011;42965;52.846;6.614;2023-12-22T02:02:51;11.18;;;2.72;;
57087;SDS011;42965;52.846;6.614;2023-12-22T02:05:42;14.18;;;3.00;;
57087;SDS011;42965;52.846;6.614;2023-12-22T02:08:09;19.33;;;3.53;;
57087;SDS011;42965;52.846;6.614;2023-12-22T02:10:38;21.63;;;3.88;;
57087;SDS011;42965;52.846;6.614;2023-12-22T02:13:04;18.20;;;3.50;;
57087;SDS011;42965;52.846;6.614;2023-12-22T02:15:31;22.02;;;3.75;;
57087;SDS011;42965;52.846;6.614;2023-12-22T02:18:11;20.13;;;4.40;;
57087;SDS011;42965;52.846;6.614;2023-12-22T02:20:42;17.45;;;3.70;;
57087;SDS011;42965;52.846;6.614;2023-12-22T02:23:11;24.63;;;4.93;;
57087;SDS011;42965;52.846;6.614;2023-12-22T02:25:37;21.25;;;4.20;;
57087;SDS011;42965;52.846;6.614;2023-12-22T02:28:04;23.05;;;3.80;;
57087;SDS011;42965;52.846;6.614;2023-12-22T02:33:17;24.45;;;3.95;;
57087;SDS011;42965;52.846;6.614;2023-12-22T02:35:45;21.73;;;5.03;;
57087;SDS011;42965;52.846;6.614;2023-12-22T02:38:14;28.08;;;4.85;;
57087;SDS011;42965;52.846;6.614;2023-12-22T02:40:42;20.60;;;4.97;;
57087;SDS011;42965;52.846;6.614;2023-12-22T02:43:10;22.85;;;4.28;;
57087;SDS011;42965;52.846;6.614;2023-12-22T02:45:37;23.38;;;5.50;;
57087;SDS011;42965;52.846;6.614;2023-12-22T02:48:04;19.40;;;3.58;;
57087;SDS011;42965;52.846;6.614;2023-12-22T02:50:30;16.42;;;3.42;;
57087;SDS011;42965;52.846;6.614;2023-12-22T02:52:57;14.73;;;3.60;;
57087;SDS011;42965;52.846;6.614;2023-12-22T02:55:43;13.95;;;3.55;;
57087;SDS011;42965;52.846;6.614;2023-12-22T02:58:10;18.80;;;3.28;;
57087;SDS011;42965;52.846;6.614;2023-12-22T03:00:38;10.85;;;2.47;;
57087;SDS011;42965;52.846;6.614;2023-12-22T03:03:07;14.38;;;2.60;;
57087;SDS011;42965;52.846;6.614;2023-12-22T03:05:34;10.63;;;2.40;;
57087;SDS011;42965;52.846;6.614;2023-12-22T03:08:00;11.68;;;2.90;;
57087;SDS011;42965;52.846;6.614;2023-12-22T03:10:27;13.77;;;2.75;;
57087;SDS011;42965;52.846;6.614;2023-12-22T03:12:55;8.50;;;1.85;;
57087;SDS011;42965;52.846;6.614;2023-12-22T03:15:21;14.25;;;2.20;;
57087;SDS011;42965;52.846;6.614;2023-12-22T03:17:47;18.38;;;3.42;;
57087;SDS011;42965;52.846;6.614;2023-12-22T03:20:14;10.57;;;2.67;;
57087;SDS011;42965;52.846;6.614;2023-12-22T03:22:40;10.65;;;2.00;;
57087;SDS011;42965;52.846;6.614;2023-12-22T03:25:07;12.55;;;3.08;;
57087;SDS011;42965;52.846;6.614;2023-12-22T03:27:33;9.52;;;2.20;;
57087;SDS011;42965;52.846;6.614;2023-12-22T03:29:59;12.63;;;2.33;;
57087;SDS011;42965;52.846;6.614;2023-12-22T03:32:28;12.27;;;2.35;;
57087;SDS011;42965;52.846;6.614;2023-12-22T03:34:54;13.88;;;2.72;;
57087;SDS011;42965;52.846;6.614;2023-12-22T03:37:20;13.65;;;2.38;;
57087;SDS011;42965;52.846;6.614;2023-12-22T03:39:47;9.30;;;2.30;;
57087;SDS011;42965;52.846;6.614;2023-12-22T03:42:14;11.40;;;2.47;;
57087;SDS011;42965;52.846;6.614;2023-12-22T03:44:40;16.67;;;3.17;;
57087;SDS011;42965;52.846;6.614;2023-12-22T03:47:07;12.70;;;2.13;;
57087;SDS011;42965;52.846;6.614;2023-12-22T03:49:33;12.50;;;2.15;;
57087;SDS011;42965;52.846;6.614;2023-12-22T03:52:02;12.32;;;2.58;;
57087;SDS011;42965;52.846;6.614;2023-12-22T03:54:28;13.02;;;2.58;;
57087;SDS011;42965;52.846;6.614;2023-12-22T03:56:55;14.38;;;2.60;;
57087;SDS011;42965;52.846;6.614;2023-12-22T03:59:22;17.50;;;2.92;;
57087;SDS011;42965;52.846;6.614;2023-12-22T04:01:51;14.25;;;3.00;;
57087;SDS011;42965;52.846;6.614;2023-12-22T04:04:18;12.75;;;2.63;;
57087;SDS011;42965;52.846;6.614;2023-12-22T04:06:45;16.50;;;3.35;;
57087;SDS011;42965;52.846;6.614;2023-12-22T04:09:12;19.70;;;3.33;;
57087;SDS011;42965;52.846;6.614;2023-12-22T04:11:58;21.30;;;3.58;;
57087;SDS011;42965;52.846;6.614;2023-12-22T04:14:24;19.33;;;3.58;;
57087;SDS011;42965;52.846;6.614;2023-12-22T04:16:50;13.70;;;3.78;;
57087;SDS011;42965;52.846;6.614;2023-12-22T04:19:18;19.70;;;3.70;;
57087;SDS011;42965;52.846;6.614;2023-12-22T04:21:44;17.58;;;3.67;;
57087;SDS011;42965;52.846;6.614;2023-12-22T04:24:11;14.95;;;3.45;;
57087;SDS011;42965;52.846;6.614;2023-12-22T04:26:37;17.60;;;3.65;;
57087;SDS011;42965;52.846;6.614;2023-12-22T04:29:03;20.02;;;4.28;;
57087;SDS011;42965;52.846;6.614;2023-12-22T04:31:30;15.85;;;3.90;;
57087;SDS011;42965;52.846;6.614;2023-12-22T04:33:56;19.83;;;4.93;;
57087;SDS011;42965;52.846;6.614;2023-12-22T04:36:22;19.10;;;3.25;;
57087;SDS011;42965;52.846;6.614;2023-12-22T04:38:48;19.98;;;3.67;;
57087;SDS011;42965;52.846;6.614;2023-12-22T04:41:14;17.75;;;3.92;;
57087;SDS011;42965;52.846;6.614;2023-12-22T04:43:43;15.43;;;3.15;;
57087;SDS011;42965;52.846;6.614;2023-12-22T04:46:10;18.35;;;3.53;;
57087;SDS011;42965;52.846;6.614;2023-12-22T04:48:36;17.23;;;3.38;;
57087;SDS011;42965;52.846;6.614;2023-12-22T04:51:02;13.98;;;3.60;;
57087;SDS011;42965;52.846;6.614;2023-12-22T04:53:28;16.45;;;3.58;;
57087;SDS011;42965;52.846;6.614;2023-12-22T04:55:54;19.58;;;4.38;;
57087;SDS011;42965;52.846;6.614;2023-12-22T04:58:21;21.35;;;4.05;;
57087;SDS011;42965;52.846;6.614;2023-12-22T05:00:48;17.67;;;3.85;;
57087;SDS011;42965;52.846;6.614;2023-12-22T05:03:15;23.23;;;5.05;;
57087;SDS011;42965;52.846;6.614;2023-12-22T05:06:01;25.67;;;4.57;;
57087;SDS011;42965;52.846;6.614;2023-12-22T05:08:29;17.13;;;3.90;;
57087;SDS011;42965;52.846;6.614;2023-12-22T05:10:56;23.98;;;5.00;;
57087;SDS011;42965;52.846;6.614;2023-12-22T05:13:43;23.08;;;4.30;;
57087;SDS011;42965;52.846;6.614;2023-12-22T05:16:10;22.27;;;3.45;;
57087;SDS011;42965;52.846;6.614;2023-12-22T05:18:37;16.70;;;3.55;;
57087;SDS011;42965;52.846;6.614;2023-12-22T05:21:03;16.08;;;3.65;;
57087;SDS011;42965;52.846;6.614;2023-12-22T05:23:29;20.65;;;4.65;;
57087;SDS011;42965;52.846;6.614;2023-12-22T05:25:55;19.17;;;4.40;;
57087;SDS011;42965;52.846;6.614;2023-12-22T05:28:22;20.73;;;4.00;;
57087;SDS011;42965;52.846;6.614;2023-12-22T05:30:48;15.80;;;3.50;;
57087;SDS011;42965;52.846;6.614;2023-12-22T05:33:14;17.40;;;3.92;;
57087;SDS011;42965;52.846;6.614;2023-12-22T05:35:41;22.02;;;4.32;;
57087;SDS011;42965;52.846;6.614;2023-12-22T05:38:08;22.05;;;3.45;;
57087;SDS011;42965;52.846;6.614;2023-12-22T05:40:34;19.27;;;3.20;;
57087;SDS011;42965;52.846;6.614;2023-12-22T05:43:00;20.13;;;4.53;;
57087;SDS011;42965;52.846;6.614;2023-12-22T05:45:26;16.45;;;3.72;;
57087;SDS011;42965;52.846;6.614;2023-12-22T05:47:53;13.50;;;3.67;;
57087;SDS011;42965;52.846;6.614;2023-12-22T05:50:19;29.15;;;5.15;;
57087;SDS011;42965;52.846;6.614;2023-12-22T05:52:45;18.70;;;3.65;;
57087;SDS011;42965;52.846;6.614;2023-12-22T05:55:11;16.52;;;3.72;;
57087;SDS011;42965;52.846;6.614;2023-12-22T05:57:37;16.02;;;3.50;;
57087;SDS011;42965;52.846;6.614;2023-12-22T06:00:04;18.52;;;3.63;;
57087;SDS011;42965;52.846;6.614;2023-12-22T06:02:33;16.15;;;3.85;;
57087;SDS011;42965;52.846;6.614;2023-12-22T06:05:00;17.60;;;4.00;;
57087;SDS011;42965;52.846;6.614;2023-12-22T06:07:26;22.88;;;3.85;;
57087;SDS011;42965;52.846;6.614;2023-12-22T06:09:53;21.27;;;3.35;;
57087;SDS011;42965;52.846;6.614;2023-12-22T06:12:39;19.08;;;4.10;;
57087;SDS011;42965;52.846;6.614;2023-12-22T06:15:06;17.30;;;3.70;;
57087;SDS011;42965;52.846;6.614;2023-12-22T06:17:32;18.05;;;3.85;;
57087;SDS011;42965;52.846;6.614;2023-12-22T06:19:58;15.07;;;3.90;;
57087;SDS011;42965;52.846;6.614;2023-12-22T06:22:45;16.10;;;3.40;;
57087;SDS011;42965;52.846;6.614;2023-12-22T06:25:13;15.82;;;3.58;;
57087;SDS011;42965;52.846;6.614;2023-12-22T06:27:39;20.98;;;3.72;;
57087;SDS011;42965;52.846;6.614;2023-12-22T06:30:06;19.08;;;3.30;;
57087;SDS011;42965;52.846;6.614;2023-12-22T06:32:33;14.27;;;3.33;;
57087;SDS011;42965;52.846;6.614;2023-12-22T06:34:59;14.25;;;3.08;;
57087;SDS011;42965;52.846;6.614;2023-12-22T06:37:26;14.15;;;3.55;;
57087;SDS011;42965;52.846;6.614;2023-12-22T06:39:52;17.02;;;2.95;;
57087;SDS011;42965;52.846;6.614;2023-12-22T06:42:18;10.93;;;2.88;;
57087;SDS011;42965;52.846;6.614;2023-12-22T06:44:44;12.23;;;3.13;;
57087;SDS011;42965;52.846;6.614;2023-12-22T06:47:11;16.90;;;3.67;;
57087;SDS011;42965;52.846;6.614;2023-12-22T06:49:38;12.68;;;3.17;;
57087;SDS011;42965;52.846;6.614;2023-12-22T06:52:04;20.33;;;4.72;;
57087;SDS011;42965;52.846;6.614;2023-12-22T06:54:30;16.70;;;3.28;;
57087;SDS011;42965;52.846;6.614;2023-12-22T06:56:57;22.63;;;4.05;;
57087;SDS011;42965;52.846;6.614;2023-12-22T06:59:23;19.50;;;3.42;;
57087;SDS011;42965;52.846;6.614;2023-12-22T07:01:49;17.08;;;3.25;;
57087;SDS011;42965;52.846;6.614;2023-12-22T07:04:16;13.73;;;3.53;;
57087;SDS011;42965;52.846;6.614;2023-12-22T07:06:42;25.63;;;3.65;;
57087;SDS011;42965;52.846;6.614;2023-12-22T07:11:47;13.63;;;3.70;;
57087;SDS011;42965;52.846;6.614;2023-12-22T07:14:21;19.00;;;4.05;;
57087;SDS011;42965;52.846;6.614;2023-12-22T07:16:47;15.43;;;3.45;;
57087;SDS011;42965;52.846;6.614;2023-12-22T07:19:14;17.77;;;3.38;;
57087;SDS011;42965;52.846;6.614;2023-12-22T07:21:40;15.07;;;3.70;;
57087;SDS011;42965;52.846;6.614;2023-12-22T07:24:09;15.65;;;3.22;;
57087;SDS011;42965;52.846;6.614;2023-12-22T07:26:36;11.82;;;2.78;;
57087;SDS011;42965;52.846;6.614;2023-12-22T07:29:02;17.67;;;3.70;;
57087;SDS011;42965;52.846;6.614;2023-12-22T07:31:48;15.35;;;4.15;;
57087;SDS011;42965;52.846;6.614;2023-12-22T07:34:15;18.13;;;3.72;;
57087;SDS011;42965;52.846;6.614;2023-12-22T07:36:42;18.85;;;3.22;;
57087;SDS011;42965;52.846;6.614;2023-12-22T07:39:08;14.63;;;3.40;;
57087;SDS011;42965;52.846;6.614;2023-12-22T07:41:36;22.65;;;3.67;;
57087;SDS011;42965;52.846;6.614;2023-12-22T07:44:03;17.90;;;3.80;;
57087;SDS011;42965;52.846;6.614;2023-12-22T07:46:29;18.83;;;4.20;;
57087;SDS011;42965;52.846;6.614;2023-12-22T07:48:56;13.70;;;3.00;;
57087;SDS011;42965;52.846;6.614;2023-12-22T07:51:22;24.77;;;3.92;;
57087;SDS011;42965;52.846;6.614;2023-12-22T07:53:48;19.98;;;3.25;;
57087;SDS011;42965;52.846;6.614;2023-12-22T07:56:15;14.40;;;4.57;;
57087;SDS011;42965;52.846;6.614;2023-12-22T07:58:42;20.48;;;4.32;;
57087;SDS011;42965;52.846;6.614;2023-12-22T08:01:08;26.98;;;3.53;;
57087;SDS011;42965;52.846;6.614;2023-12-22T08:03:34;15.50;;;4.28;;
57087;SDS011;42965;52.846;6.614;2023-12-22T08:06:01;19.95;;;3.63;;
57087;SDS011;42965;52.846;6.614;2023-12-22T08:08:28;16.48;;;3.45;;
57087;SDS011;42965;52.846;6.614;2023-12-22T08:10:54;25.27;;;4.25;;
57087;SDS011;42965;52.846;6.614;2023-12-22T08:13:20;16.38;;;3.75;;
57087;SDS011;42965;52.846;6.614;2023-12-22T08:15:47;23.08;;;3.80;;
57087;SDS011;42965;52.846;6.614;2023-12-22T08:18:13;20.70;;;4.43;;
57087;SDS011;42965;52.846;6.614;2023-12-22T08:20:39;23.98;;;4.28;;
57087;SDS011;42965;52.846;6.614;2023-12-22T08:23:05;21.25;;;4.20;;
57087;SDS011;42965;52.846;6.614;2023-12-22T08:25:33;19.88;;;4.45;;
57087;SDS011;42965;52.846;6.614;2023-12-22T08:28:00;18.33;;;4.22;;
57087;SDS011;42965;52.846;6.614;2023-12-22T08:30:26;25.63;;;3.70;;
57087;SDS011;42965;52.846;6.614;2023-12-22T08:32:53;15.05;;;3.53;;
57087;SDS011;42965;52.846;6.614;2023-12-22T08:35:19;21.60;;;4.30;;
57087;SDS011;42965;52.846;6.614;2023-12-22T08:37:45;16.73;;;5.97;;
57087;SDS011;42965;52.846;6.614;2023-12-22T08:40:11;20.38;;;4.43;;
57087;SDS011;42965;52.846;6.614;2023-12-22T08:42:38;20.45;;;3.08;;
57087;SDS011;42965;52.846;6.614;2023-12-22T08:45:05;14.90;;;3.17;;
57087;SDS011;42965;52.846;6.614;2023-12-22T08:47:32;11.57;;;2.35;;
57087;SDS011;42965;52.846;6.614;2023-12-22T08:49:59;12.65;;;3.13;;
57087;SDS011;42965;52.846;6.614;2023-12-22T08:52:29;8.40;;;2.15;;
57087;SDS011;42965;52.846;6.614;2023-12-22T08:54:55;15.73;;;2.40;;
57087;SDS011;42965;52.846;6.614;2023-12-22T08:57:42;11.68;;;1.98;;
57087;SDS011;42965;52.846;6.614;2023-12-22T09:00:08;12.63;;;2.10;;
57087;SDS011;42965;52.846;6.614;2023-12-22T09:02:35;10.80;;;1.80;;
57087;SDS011;42965;52.846;6.614;2023-12-22T09:05:01;10.02;;;2.15;;
57087;SDS011;42965;52.846;6.614;2023-12-22T09:07:48;6.43;;;1.42;;
57087;SDS011;42965;52.846;6.614;2023-12-22T09:10:14;6.90;;;1.40;;
57087;SDS011;42965;52.846;6.614;2023-12-22T09:12:41;5.13;;;1.20;;
57087;SDS011;42965;52.846;6.614;2023-12-22T09:15:08;6.22;;;1.48;;
57087;SDS011;42965;52.846;6.614;2023-12-22T09:17:34;6.72;;;1.38;;
57087;SDS011;42965;52.846;6.614;2023-12-22T09:20:03;7.40;;;1.38;;
57087;SDS011;42965;52.846;6.614;2023-12-22T09:22:29;5.93;;;1.00;;
57087;SDS011;42965;52.846;6.614;2023-12-22T09:24:56;6.60;;;1.13;;
57087;SDS011;42965;52.846;6.614;2023-12-22T09:27:22;7.85;;;1.13;;
57087;SDS011;42965;52.846;6.614;2023-12-22T09:29:48;4.97;;;1.15;;
57087;SDS011;42965;52.846;6.614;2023-12-22T09:32:14;5.03;;;1.13;;
57087;SDS011;42965;52.846;6.614;2023-12-22T09:34:40;5.95;;;1.38;;
57087;SDS011;42965;52.846;6.614;2023-12-22T09:37:07;6.40;;;1.15;;
57087;SDS011;42965;52.846;6.614;2023-12-22T09:39:33;7.07;;;1.88;;
57087;SDS011;42965;52.846;6.614;2023-12-22T09:41:59;6.10;;;0.80;;
57087;SDS011;42965;52.846;6.614;2023-12-22T09:44:45;6.90;;;1.48;;
57087;SDS011;42965;52.846;6.614;2023-12-22T09:47:15;7.82;;;1.42;;
57087;SDS011;42965;52.846;6.614;2023-12-22T09:49:44;6.22;;;1.38;;
57087;SDS011;42965;52.846;6.614;2023-12-22T09:52:12;5.63;;;1.23;;
57087;SDS011;42965;52.846;6.614;2023-12-22T09:54:39;8.50;;;1.73;;
57087;SDS011;42965;52.846;6.614;2023-12-22T09:57:07;5.20;;;1.25;;
57087;SDS011;42965;52.846;6.614;2023-12-22T09:59:34;5.68;;;1.60;;
57087;SDS011;42965;52.846;6.614;2023-12-22T10:02:22;5.25;;;1.25;;
57087;SDS011;42965;52.846;6.614;2023-12-22T10:04:52;7.22;;;2.20;;
57087;SDS011;42965;52.846;6.614;2023-12-22T10:07:18;8.98;;;1.90;;
57087;SDS011;42965;52.846;6.614;2023-12-22T10:09:47;12.18;;;1.85;;
57087;SDS011;42965;52.846;6.614;2023-12-22T10:12:15;12.77;;;1.70;;
57087;SDS011;42965;52.846;6.614;2023-12-22T10:14:43;8.02;;;1.80;;
57087;SDS011;42965;52.846;6.614;2023-12-22T10:17:30;11.48;;;2.88;;
57087;SDS011;42965;52.846;6.614;2023-12-22T10:19:57;10.68;;;2.05;;
57087;SDS011;42965;52.846;6.614;2023-12-22T10:22:23;15.02;;;2.38;;
57087;SDS011;42965;52.846;6.614;2023-12-22T10:24:49;11.10;;;2.25;;
57087;SDS011;42965;52.846;6.614;2023-12-22T10:27:19;9.30;;;2.22;;
57087;SDS011;42965;52.846;6.614;2023-12-22T10:29:48;9.23;;;2.28;;
57087;SDS011;42965;52.846;6.614;2023-12-22T10:32:15;9.63;;;2.17;;
57087;SDS011;42965;52.846;6.614;2023-12-22T10:34:42;13.15;;;2.88;;
57087;SDS011;42965;52.846;6.614;2023-12-22T10:37:09;11.90;;;2.20;;
57087;SDS011;42965;52.846;6.614;2023-12-22T10:39:55;12.23;;;2.15;;
57087;SDS011;42965;52.846;6.614;2023-12-22T10:42:21;10.27;;;2.65;;
57087;SDS011;42965;52.846;6.614;2023-12-22T10:44:48;17.50;;;3.80;;
57087;SDS011;42965;52.846;6.614;2023-12-22T10:47:15;13.20;;;2.15;;
57087;SDS011;42965;52.846;6.614;2023-12-22T10:49:46;12.90;;;2.33;;
57087;SDS011;42965;52.846;6.614;2023-12-22T10:52:16;12.30;;;2.47;;
57087;SDS011;42965;52.846;6.614;2023-12-22T10:54:43;10.87;;;2.03;;
57087;SDS011;42965;52.846;6.614;2023-12-22T10:57:10;12.80;;;2.63;;
57087;SDS011;42965;52.846;6.614;2023-12-22T10:59:44;11.20;;;2.05;;
57087;SDS011;42965;52.846;6.614;2023-12-22T11:02:15;8.00;;;1.73;;
57087;SDS011;42965;52.846;6.614;2023-12-22T11:05:06;8.73;;;1.90;;
57087;SDS011;42965;52.846;6.614;2023-12-22T11:07:34;9.15;;;1.70;;
57087;SDS011;42965;52.846;6.614;2023-12-22T11:10:03;9.32;;;2.13;;
57087;SDS011;42965;52.846;6.614;2023-12-22T11:12:33;11.52;;;1.95;;
57087;SDS011;42965;52.846;6.614;2023-12-22T11:15:02;9.85;;;1.70;;
57087;SDS011;42965;52.846;6.614;2023-12-22T11:17:32;7.57;;;1.63;;
57087;SDS011;42965;52.846;6.614;2023-12-22T11:20:01;5.50;;;1.30;;
57087;SDS011;42965;52.846;6.614;2023-12-22T11:22:28;7.13;;;1.67;;
57087;SDS011;42965;52.846;6.614;2023-12-22T11:24:58;8.93;;;1.88;;
57087;SDS011;42965;52.846;6.614;2023-12-22T11:27:25;7.00;;;1.50;;
57087;SDS011;42965;52.846;6.614;2023-12-22T11:29:54;12.13;;;1.63;;
57087;SDS011;42965;52.846;6.614;2023-12-22T11:32:20;6.43;;;1.42;;
57087;SDS011;42965;52.846;6.614;2023-12-22T11:34:47;4.80;;;1.63;;
57087;SDS011;42965;52.846;6.614;2023-12-22T11:37:14;6.43;;;1.30;;
57087;SDS011;42965;52.846;6.614;2023-12-22T11:39:42;7.72;;;1.38;;
57087;SDS011;42965;52.846;6.614;2023-12-22T11:42:10;6.22;;;1.35;;
57087;SDS011;42965;52.846;6.614;2023-12-22T11:44:40;10.00;;;1.77;;
57087;SDS011;42965;52.846;6.614;2023-12-22T11:47:07;8.05;;;1.50;;
57087;SDS011;42965;52.846;6.614;2023-12-22T11:49:35;7.85;;;1.38;;
57087;SDS011;42965;52.846;6.614;2023-12-22T11:52:15;6.35;;;1.48;;
57087;SDS011;42965;52.846;6.614;2023-12-22T11:54:43;9.65;;;2.20;;
57087;SDS011;42965;52.846;6.614;2023-12-22T11:59:57;6.03;;;1.40;;
57087;SDS011;42965;52.846;6.614;2023-12-22T12:02:24;5.70;;;1.50;;
57087;SDS011;42965;52.846;6.614;2023-12-22T12:04:51;6.13;;;1.70;;
57087;SDS011;42965;52.846;6.614;2023-12-22T12:10:12;7.15;;;1.60;;
57087;SDS011;42965;52.846;6.614;2023-12-22T12:12:47;10.18;;;1.50;;
57087;SDS011;42965;52.846;6.614;2023-12-22T12:15:29;8.20;;;1.50;;
57087;SDS011;42965;52.846;6.614;2023-12-22T12:18:00;7.45;;;1.25;;
57087;SDS011;42965;52.846;6.614;2023-12-22T12:20:27;9.68;;;1.73;;
57087;SDS011;42965;52.846;6.614;2023-12-22T12:22:54;12.32;;;1.92;;
57087;SDS011;42965;52.846;6.614;2023-12-22T12:25:27;9.00;;;2.03;;
57087;SDS011;42965;52.846;6.614;2023-12-22T12:28:01;9.73;;;1.77;;
57087;SDS011;42965;52.846;6.614;2023-12-22T12:30:34;8.05;;;2.17;;
57087;SDS011;42965;52.846;6.614;2023-12-22T12:33:06;15.18;;;2.45;;
57087;SDS011;42965;52.846;6.614;2023-12-22T12:35:34;9.93;;;1.60;;
57087;SDS011;42965;52.846;6.614;2023-12-22T12:38:00;9.10;;;1.60;;
57087;SDS011;42965;52.846;6.614;2023-12-22T12:40:28;7.22;;;1.83;;
57087;SDS011;42965;52.846;6.614;2023-12-22T12:42:56;11.80;;;2.72;;
57087;SDS011;42965;52.846;6.614;2023-12-22T12:45:22;9.85;;;1.85;;
57087;SDS011;42965;52.846;6.614;2023-12-22T12:47:58;10.45;;;2.42;;
57087;SDS011;42965;52.846;6.614;2023-12-22T12:50:29;8.38;;;1.92;;
57087;SDS011;42965;52.846;6.614;2023-12-22T12:52:56;7.88;;;1.80;;
57087;SDS011;42965;52.846;6.614;2023-12-22T12:55:24;13.95;;;2.35;;
57087;SDS011;42965;52.846;6.614;2023-12-22T12:57:54;15.43;;;3.45;;
57087;SDS011;42965;52.846;6.614;2023-12-22T13:00:24;11.85;;;1.77;;
57087;SDS011;42965;52.846;6.614;2023-12-22T13:02:51;10.10;;;2.20;;
57087;SDS011;42965;52.846;6.614;2023-12-22T13:05:22;6.93;;;1.65;;
57087;SDS011;42965;52.846;6.614;2023-12-22T13:07:49;10.15;;;2.00;;
57087;SDS011;42965;52.846;6.614;2023-12-22T13:10:24;10.90;;;1.90;;
57087;SDS011;42965;52.846;6.614;2023-12-22T13:13:11;9.18;;;1.92;;
57087;SDS011;42965;52.846;6.614;2023-12-22T13:15:39;8.73;;;1.83;;
57087;SDS011;42965;52.846;6.614;2023-12-22T13:18:07;10.57;;;1.83;;
57087;SDS011;42965;52.846;6.614;2023-12-22T13:20:34;9.40;;;1.75;;
57087;SDS011;42965;52.846;6.614;2023-12-22T13:23:01;10.65;;;1.90;;
57087;SDS011;42965;52.846;6.614;2023-12-22T13:25:37;9.43;;;1.77;;
57087;SDS011;42965;52.846;6.614;2023-12-22T13:28:06;13.77;;;1.90;;
57087;SDS011;42965;52.846;6.614;2023-12-22T13:32:59;8.68;;;1.60;;
57087;SDS011;42965;52.846;6.614;2023-12-22T13:35:26;11.73;;;1.60;;
57087;SDS011;42965;52.846;6.614;2023-12-22T13:38:14;10.65;;;1.60;;
57087;SDS011;42965;52.846;6.614;2023-12-22T13:40:44;10.75;;;1.92;;
57087;SDS011;42965;52.846;6.614;2023-12-22T13:43:12;6.05;;;1.50;;
57087;SDS011;42965;52.846;6.614;2023-12-22T13:45:38;7.88;;;1.58;;
57087;SDS011;42965;52.846;6.614;2023-12-22T13:48:05;8.57;;;1.55;;
57087;SDS011;42965;52.846;6.614;2023-12-22T13:50:32;12.90;;;1.73;;
57087;SDS011;42965;52.846;6.614;2023-12-22T13:53:08;7.93;;;1.42;;
57087;SDS011;42965;52.846;6.614;2023-12-22T13:55:35;12.57;;;3.25;;
57087;SDS011;42965;52.846;6.614;2023-12-22T13:58:04;9.60;;;1.70;;
57087;SDS011;42965;52.846;6.614;2023-12-22T14:00:31;13.55;;;1.98;;
57087;SDS011;42965;52.846;6.614;2023-12-22T14:02:57;8.85;;;1.60;;
57087;SDS011;42965;52.846;6.614;2023-12-22T14:05:24;8.57;;;1.55;;
57087;SDS011;42965;52.846;6.614;2023-12-22T14:07:50;11.45;;;1.83;;
57087;SDS011;42965;52.846;6.614;2023-12-22T14:10:16;14.23;;;1.85;;
57087;SDS011;42965;52.846;6.614;2023-12-22T14:12:43;10.80;;;1.95;;
57087;SDS011;42965;52.846;6.614;2023-12-22T14:15:10;8.20;;;1.75;;
57087;SDS011;42965;52.846;6.614;2023-12-22T14:17:39;9.43;;;3.15;;
57087;SDS011;42965;52.846;6.614;2023-12-22T14:20:09;9.10;;;1.63;;
57087;SDS011;42965;52.846;6.614;2023-12-22T14:22:36;9.85;;;1.77;;
57087;SDS011;42965;52.846;6.614;2023-12-22T14:25:03;5.78;;;1.23;;
57087;SDS011;42965;52.846;6.614;2023-12-22T14:27:30;8.50;;;1.60;;
57087;SDS011;42965;52.846;6.614;2023-12-22T14:29:57;5.05;;;1.50;;
57087;SDS011;42965;52.846;6.614;2023-12-22T14:32:23;5.30;;;1.05;;
57087;SDS011;42965;52.846;6.614;2023-12-22T14:34:49;3.67;;;1.20;;
57087;SDS011;42965;52.846;6.614;2023-12-22T14:37:15;3.72;;;0.90;;
57087;SDS011;42965;52.846;6.614;2023-12-22T14:39:43;7.03;;;0.90;;
57087;SDS011;42965;52.846;6.614;2023-12-22T14:42:31;3.83;;;0.80;;
57087;SDS011;42965;52.846;6.614;2023-12-22T14:44:58;1.98;;;0.60;;
57087;SDS011;42965;52.846;6.614;2023-12-22T14:47:47;2.00;;;0.70;;
57087;SDS011;42965;52.846;6.614;2023-12-22T14:50:14;4.68;;;0.85;;
57087;SDS011;42965;52.846;6.614;2023-12-22T14:52:40;1.35;;;0.60;;
57087;SDS011;42965;52.846;6.614;2023-12-22T14:55:07;3.05;;;0.70;;
57087;SDS011;42965;52.846;6.614;2023-12-22T14:57:33;3.53;;;0.60;;